Time;durP1;ratioP1;P1;durP2;ratioP2;P2;SDS_P1;SDS_P2;PMS_P1;PMS_P2;Temp;Humidity;BMP_temperature;BMP_pressure;BME280_temperature;BME280_humidity;BME280_pressure;Samples;Min_cycle;Max_cycle;Signal;HPM_P1;HPM_P2
2024/03/28 00:02:04;;;;;;;0.10;0.10;;;;;;;6.16;78.37;96693.94;7362830;19;20014;-63
2024/03/28 00:04:31;;;;;;;0.10;0.10;;;;;;;6.18;78.57;96699.81;7354367;19;20014;-63
2024/03/28 00:06:56;;;;;;;0.10;0.10;;;;;;;6.17;78.19;96698.19;7359803;19;20006;-63
2024/03/28 00:09:22;;;;;;;0.10;0.10;;;;;;;6.19;78.67;96707.50;7360796;19;20663;-63
2024/03/28 00:11:47;;;;;;;0.00;0.00;;;;;;;6.12;78.48;96697.66;7364707;19;20007;-63
2024/03/28 00:14:14;;;;;;;0.10;0.10;;;;;;;6.11;78.54;96688.25;7360297;19;20006;-63
2024/03/28 00:16:39;;;;;;;0.10;0.10;;;;;;;6.03;78.19;96685.34;7362111;19;20002;-63
2024/03/28 00:19:05;;;;;;;0.10;0.10;;;;;;;6.19;78.63;96702.34;7362713;19;20009;-63
2024/03/28 00:21:31;;;;;;;0.10;0.10;;;;;;;6.22;78.50;96703.88;7360772;19;20046;-63
2024/03/28 00:23:56;;;;;;;0.10;0.10;;;;;;;6.23;78.65;96710.69;7364376;19;20647;-63
2024/03/28 00:26:21;;;;;;;0.10;0.10;;;;;;;6.26;78.20;96696.72;7362430;19;20010;-63
2024/03/28 00:28:47;;;;;;;0.10;0.10;;;;;;;6.28;78.53;96700.84;7362662;19;20497;-63
2024/03/28 00:31:12;;;;;;;0.10;0.10;;;;;;;6.30;78.48;96698.16;7360842;19;20009;-63
2024/03/28 00:33:37;;;;;;;0.10;0.10;;;;;;;6.17;78.58;96677.47;7362674;19;20553;-63
2024/03/28 00:36:03;;;;;;;0.00;0.00;;;;;;;6.23;78.64;96674.44;7360273;19;20003;-63
2024/03/28 00:38:29;;;;;;;0.10;0.10;;;;;;;6.38;78.97;96706.22;7363654;19;20033;-63
2024/03/28 00:40:55;;;;;;;0.10;0.10;;;;;;;6.35;78.74;96680.53;7357268;19;20002;-63
2024/03/28 00:43:22;;;;;;;0.10;0.10;;;;;;;6.47;78.88;96697.81;7363099;19;20025;-63
2024/03/28 00:45:47;;;;;;;0.10;0.10;;;;;;;6.39;78.53;96669.84;7360408;19;20048;-63
2024/03/28 00:48:15;;;;;;;0.00;0.00;;;;;;;6.54;78.85;96680.91;7362367;19;19999;-61
2024/03/28 00:50:41;;;;;;;0.00;0.00;;;;;;;6.59;78.75;96680.56;7358191;19;21261;-63
2024/03/28 00:53:06;;;;;;;0.10;0.10;;;;;;;6.66;79.07;96681.78;7361151;19;19999;-63
2024/03/28 00:55:33;;;;;;;0.10;0.10;;;;;;;6.71;79.17;96671.94;7355741;19;20010;-63
2024/03/28 00:57:59;;;;;;;0.13;0.13;;;;;;;6.75;79.16;96668.19;7359984;19;20002;-63
2024/03/28 01:00:24;;;;;;;0.10;0.10;;;;;;;6.47;79.07;96618.31;7360498;19;20019;-62
2024/03/28 01:02:50;;;;;;;0.00;0.00;;;;;;;6.83;78.99;96676.22;7361552;19;20006;-63
2024/03/28 01:05:15;;;;;;;0.10;0.10;;;;;;;6.86;78.83;96659.63;7352826;19;20026;-63
2024/03/28 01:07:42;;;;;;;0.10;0.10;;;;;;;6.91;78.64;96652.34;7357905;19;21260;-63
2024/03/28 01:10:08;;;;;;;0.10;0.10;;;;;;;6.92;79.10;96648.81;7358996;19;20053;-63
2024/03/28 01:12:33;;;;;;;0.10;0.10;;;;;;;6.97;78.55;96651.88;7363247;19;20010;-62
2024/03/28 01:14:58;;;;;;;0.10;0.10;;;;;;;6.95;78.49;96643.41;7358628;19;20731;-63
2024/03/28 01:17:24;;;;;;;0.10;0.10;;;;;;;7.01;78.79;96648.97;7360574;19;20017;-62
2024/03/28 01:19:50;;;;;;;0.10;0.10;;;;;;;6.96;78.50;96634.69;7359955;19;20013;-63
2024/03/28 01:22:16;;;;;;;0.10;0.10;;;;;;;7.07;78.38;96641.66;7359685;19;20007;-63
2024/03/28 01:24:42;;;;;;;0.10;0.10;;;;;;;7.01;78.54;96633.41;7358634;19;20002;-63
2024/03/28 01:27:08;;;;;;;0.10;0.10;;;;;;;6.94;78.56;96615.78;7359947;19;19998;-62
2024/03/28 01:29:33;;;;;;;0.10;0.10;;;;;;;7.13;78.54;96630.84;7360768;19;20002;-62
2024/03/28 01:31:59;;;;;;;0.00;0.00;;;;;;;7.09;78.39;96621.63;7362046;19;20033;-63
2024/03/28 01:34:26;;;;;;;0.10;0.10;;;;;;;7.14;78.59;96622.09;7357073;19;20031;-63
2024/03/28 01:36:52;;;;;;;0.10;0.10;;;;;;;7.18;78.48;96619.19;7349663;19;20593;-63
2024/03/28 01:39:17;;;;;;;0.10;0.10;;;;;;;7.17;78.47;96614.09;7364473;19;20030;-63
2024/03/28 01:41:43;;;;;;;0.10;0.10;;;;;;;7.24;78.14;96634.28;7359164;19;20029;-63
2024/03/28 01:44:09;;;;;;;0.10;0.10;;;;;;;7.28;78.06;96656.47;7357284;19;20953;-63
2024/03/28 01:46:35;;;;;;;0.10;0.10;;;;;;;7.23;78.18;96626.63;7362396;19;20013;-63
2024/03/28 01:49:01;;;;;;;0.10;0.10;;;;;;;7.27;78.01;96625.47;7360692;19;20006;-62
2024/03/28 01:51:27;;;;;;;0.00;0.00;;;;;;;7.31;77.69;96619.09;7360490;19;20011;-64
2024/03/28 01:53:53;;;;;;;0.10;0.10;;;;;;;7.16;78.01;96591.72;7357676;19;19999;-63
2024/03/28 01:56:19;;;;;;;0.10;0.10;;;;;;;7.27;78.08;96618.50;7359211;19;20013;-63
2024/03/28 01:58:45;;;;;;;0.10;0.10;;;;;;;7.29;77.75;96615.78;7359765;19;20090;-63
2024/03/28 02:01:13;;;;;;;0.10;0.10;;;;;;;7.22;77.82;96604.22;7361297;19;20006;-62
2024/03/28 02:03:38;;;;;;;0.10;0.10;;;;;;;7.15;77.53;96592.66;7360861;19;20007;-63
2024/03/28 02:06:04;;;;;;;0.10;0.10;;;;;;;7.17;77.84;96595.94;7362111;19;20009;-63
2024/03/28 02:08:30;;;;;;;0.10;0.10;;;;;;;7.29;77.46;96610.59;7360666;19;19994;-62
2024/03/28 02:10:56;;;;;;;0.03;0.03;;;;;;;7.25;77.45;96609.19;7358808;19;20600;-63
2024/03/28 02:13:23;;;;;;;0.10;0.10;;;;;;;7.29;77.42;96616.59;7362880;19;20471;-63
2024/03/28 02:15:48;;;;;;;0.10;0.10;;;;;;;7.21;77.57;96599.97;7365025;19;20010;-63
2024/03/28 02:18:18;;;;;;;0.10;0.10;;;;;;;7.28;77.59;96608.94;7363920;19;20011;-64
2024/03/28 02:20:44;;;;;;;0.10;0.10;;;;;;;7.25;77.71;96609.19;7366644;19;20050;-62
2024/03/28 02:23:10;;;;;;;0.10;0.10;;;;;;;7.08;77.51;96587.06;7364263;19;20002;-63
2024/03/28 02:25:35;;;;;;;0.10;0.10;;;;;;;7.23;77.64;96606.69;7369153;19;20062;-63
2024/03/28 02:28:00;;;;;;;0.10;0.10;;;;;;;6.86;77.46;96542.94;7363524;19;20116;-62
2024/03/28 02:30:27;;;;;;;0.10;0.10;;;;;;;7.04;77.66;96575.28;7368850;19;20011;-63
2024/03/28 02:32:52;;;;;;;0.10;0.10;;;;;;;7.17;77.53;96614.09;7362926;19;20007;-63
2024/03/28 02:35:18;;;;;;;0.10;0.10;;;;;;;7.06;77.66;96588.97;7364599;19;20583;-63
2024/03/28 02:37:43;;;;;;;0.10;0.10;;;;;;;7.17;77.93;96611.50;7363891;19;20010;-63
2024/03/28 02:40:10;;;;;;;0.10;0.10;;;;;;;7.17;78.15;96603.72;7367045;19;20387;-63
2024/03/28 02:42:35;;;;;;;0.10;0.10;;;;;;;7.16;77.87;96599.50;7365939;19;19998;-63
2024/03/28 02:45:01;;;;;;;0.10;0.10;;;;;;;7.03;78.16;96592.59;7366226;19;20539;-64
2024/03/28 02:47:26;;;;;;;0.03;0.03;;;;;;;7.13;78.05;96599.72;7362167;19;20010;-63
2024/03/28 02:49:52;;;;;;;0.10;0.10;;;;;;;7.12;77.91;96605.84;7365680;19;20514;-62
2024/03/28 02:52:17;;;;;;;0.05;0.05;;;;;;;7.02;78.02;96577.16;7366264;19;19995;-61
2024/03/28 02:54:42;;;;;;;0.10;0.10;;;;;;;6.97;78.08;96566.31;7363172;19;19999;-62
2024/03/28 02:57:08;;;;;;;0.10;0.10;;;;;;;6.87;78.30;96548.00;7363177;19;20428;-62
2024/03/28 02:59:33;;;;;;;0.10;0.10;;;;;;;7.00;78.13;96577.28;7357547;19;20013;-63
2024/03/28 03:01:58;;;;;;;0.10;0.10;;;;;;;6.95;78.41;96571.63;7366174;19;20378;-61
2024/03/28 03:04:24;;;;;;;0.10;0.10;;;;;;;6.98;78.20;96575.72;7365806;19;20048;-63
2024/03/28 03:06:50;;;;;;;0.10;0.10;;;;;;;6.96;78.30;96578.44;7367090;19;20013;-63
2024/03/28 03:09:15;;;;;;;0.10;0.10;;;;;;;6.84;77.84;96563.78;7369221;19;20042;-63
2024/03/28 03:11:41;;;;;;;0.10;0.10;;;;;;;6.95;78.10;96582.00;7365348;19;20002;-62
2024/03/28 03:14:07;;;;;;;0.10;0.10;;;;;;;6.93;77.91;96581.25;7367960;19;20336;-62
2024/03/28 03:16:33;;;;;;;0.10;0.10;;;;;;;6.90;78.19;96573.72;7367202;19;20839;-63
2024/03/28 03:18:59;;;;;;;0.10;0.10;;;;;;;6.88;78.06;96583.34;7367824;19;20018;-63
2024/03/28 03:21:25;;;;;;;0.10;0.10;;;;;;;6.84;78.79;96584.53;7366706;19;20023;-63
2024/03/28 03:23:51;;;;;;;0.10;0.10;;;;;;;6.86;78.70;96587.03;7365818;19;20788;-62
2024/03/28 03:26:20;;;;;;;0.10;0.10;;;;;;;6.85;78.67;96585.38;7362942;19;20360;-63
2024/03/28 03:34:35;;;;;;;0.10;0.10;;;;;;;6.85;78.83;96570.63;7368073;19;20034;-62
2024/03/28 03:37:21;;;;;;;0.10;0.10;;;;;;;6.86;79.02;96577.47;7367404;19;19998;-63
2024/03/28 03:39:52;;;;;;;0.00;0.00;;;;;;;6.78;78.99;96558.22;7364963;19;20609;-63
2024/03/28 03:42:17;;;;;;;0.10;0.10;;;;;;;6.64;79.48;96535.91;7364363;19;20038;-63
2024/03/28 03:44:43;;;;;;;0.00;0.00;;;;;;;6.80;79.07;96561.56;7367724;19;20023;-63
2024/03/28 03:47:08;;;;;;;0.10;0.10;;;;;;;6.87;79.27;96568.75;7367973;19;20045;-63
2024/03/28 03:49:33;;;;;;;0.10;0.10;;;;;;;6.91;79.55;96575.38;7368613;19;20006;-62
2024/03/28 03:51:59;;;;;;;0.10;0.10;;;;;;;6.90;79.42;96573.72;7368248;19;20446;-61
2024/03/28 03:54:24;;;;;;;0.10;0.10;;;;;;;6.94;79.60;96577.72;7359041;19;20014;-62
2024/03/28 03:56:50;;;;;;;0.10;0.10;;;;;;;6.83;79.69;96564.72;7363723;19;20014;-64
2024/03/28 03:59:15;;;;;;;0.10;0.10;;;;;;;6.91;79.61;96572.78;7365460;19;20470;-63
2024/03/28 04:01:40;;;;;;;0.10;0.10;;;;;;;6.96;79.72;96572.44;7364970;19;20013;-63
2024/03/28 04:04:06;;;;;;;0.10;0.10;;;;;;;6.96;79.46;96567.25;7367857;19;20383;-63
2024/03/28 04:06:31;;;;;;;0.08;0.08;;;;;;;6.98;79.56;96573.97;7358848;19;20010;-62
2024/03/28 04:08:57;;;;;;;0.10;0.10;;;;;;;6.85;79.64;96555.09;7363228;19;20027;-63
2024/03/28 04:11:22;;;;;;;0.10;0.10;;;;;;;7.00;79.48;96576.47;7365048;19;20029;-64
2024/03/28 04:13:47;;;;;;;0.10;0.10;;;;;;;6.89;79.50;96550.47;7365855;19;19999;-64
2024/03/28 04:16:13;;;;;;;0.10;0.10;;;;;;;7.00;79.49;96566.91;7344060;19;19998;-62
2024/03/28 04:18:38;;;;;;;0.10;0.10;;;;;;;6.99;79.52;96567.00;7367556;19;20038;-63
2024/03/28 04:21:04;;;;;;;0.10;0.10;;;;;;;7.03;79.53;96563.25;7366253;19;20473;-60
2024/03/28 04:23:29;;;;;;;0.10;0.10;;;;;;;7.02;79.49;96570.19;7366760;19;20014;-64
2024/03/28 04:25:59;;;;;;;0.10;0.10;;;;;;;7.07;79.75;96564.69;7365979;19;20505;-63
2024/03/28 04:28:25;;;;;;;0.10;0.10;;;;;;;7.06;79.71;96567.41;7367189;19;20379;-64
2024/03/28 04:30:51;;;;;;;0.10;0.10;;;;;;;7.09;79.62;96556.78;7364454;19;20006;-64
2024/03/28 04:33:17;;;;;;;0.10;0.10;;;;;;;7.10;79.78;96555.84;7363138;19;19999;-64
2024/03/28 04:35:46;;;;;;;0.10;0.10;;;;;;;7.03;79.60;96553.69;7361467;19;20018;-62
2024/03/28 04:38:12;;;;;;;0.10;0.10;;;;;;;7.14;79.96;96559.84;7360580;19;20038;-63
2024/03/28 04:40:37;;;;;;;0.10;0.10;;;;;;;7.14;79.54;96549.47;7366802;19;20466;-62
2024/03/28 04:43:03;;;;;;;0.10;0.10;;;;;;;6.81;79.90;96486.25;7364897;19;20003;-63
2024/03/28 04:45:28;;;;;;;0.10;0.10;;;;;;;7.21;79.62;96548.09;7364418;19;20017;-61
2024/03/28 04:47:54;;;;;;;0.10;0.10;;;;;;;7.14;79.65;96533.91;7365188;19;20010;-63
2024/03/28 04:50:20;;;;;;;0.10;0.10;;;;;;;7.23;79.56;96548.78;7366802;19;20009;-63
2024/03/28 04:52:46;;;;;;;0.00;0.00;;;;;;;7.15;79.43;96535.59;7365927;19;20002;-62
2024/03/28 04:55:13;;;;;;;0.10;0.10;;;;;;;7.22;79.38;96552.31;7362606;19;20018;-63
2024/03/28 04:57:38;;;;;;;0.10;0.10;;;;;;;7.05;79.47;96535.44;7366397;19;20935;-63
2024/03/28 05:00:08;;;;;;;0.10;0.10;;;;;;;7.11;79.73;96539.34;7365654;19;20007;-61
2024/03/28 05:02:35;;;;;;;0.10;0.10;;;;;;;7.18;79.64;96549.13;7366071;19;20674;-63
2024/03/28 05:05:01;;;;;;;0.00;0.00;;;;;;;7.18;79.63;96550.91;7365015;19;20003;-63
2024/03/28 05:07:26;;;;;;;0.10;0.10;;;;;;;7.17;79.77;96550.06;7363953;19;20133;-63
2024/03/28 05:09:52;;;;;;;0.10;0.10;;;;;;;7.16;79.56;96540.66;7363172;19;20049;-62
2024/03/28 05:12:18;;;;;;;0.10;0.10;;;;;;;7.20;79.82;96539.47;7367392;19;20842;-63
2024/03/28 05:14:44;;;;;;;0.10;0.10;;;;;;;7.10;79.54;96522.13;7359676;19;20073;-63
2024/03/28 05:17:10;;;;;;;0.10;0.10;;;;;;;7.21;79.92;96541.13;7369078;19;20007;-63
2024/03/28 05:19:35;;;;;;;0.10;0.10;;;;;;;7.21;79.50;96525.56;7364878;19;20010;-64
2024/03/28 05:22:02;;;;;;;0.10;0.10;;;;;;;7.22;79.81;96526.38;7365393;19;20006;-63
2024/03/28 05:24:28;;;;;;;0.10;0.10;;;;;;;7.21;79.63;96517.78;7358857;19;20066;-61
2024/03/28 05:26:53;;;;;;;0.10;0.10;;;;;;;7.21;79.54;96520.38;7364887;19;20074;-63
2024/03/28 05:29:18;;;;;;;0.10;0.10;;;;;;;7.10;79.74;96506.56;7362077;19;20030;-63
2024/03/28 05:31:44;;;;;;;0.10;0.10;;;;;;;7.21;79.85;96514.34;7363641;19;20023;-63
2024/03/28 05:34:09;;;;;;;0.05;0.05;;;;;;;7.18;79.79;96504.19;7362933;19;20660;-63
2024/03/28 05:36:37;;;;;;;0.10;0.10;;;;;;;7.00;79.49;96465.75;7361387;19;20009;-63
2024/03/28 05:39:06;;;;;;;0.10;0.10;;;;;;;7.20;79.49;96504.94;7364980;19;20088;-63
2024/03/28 05:41:32;;;;;;;0.10;0.10;;;;;;;7.18;79.79;96499.00;7362056;19;20964;-63
2024/03/28 05:43:58;;;;;;;0.10;0.10;;;;;;;7.18;79.39;96499.00;7364410;19;20066;-62
2024/03/28 05:46:24;;;;;;;0.08;0.08;;;;;;;7.17;79.74;96497.38;7363682;19;20053;-63
2024/03/28 05:48:49;;;;;;;0.10;0.10;;;;;;;7.16;79.43;96499.13;7367194;19;20407;-64
2024/03/28 05:51:15;;;;;;;0.10;0.10;;;;;;;7.01;79.85;96477.78;7371611;19;19999;-62
2024/03/28 05:53:45;;;;;;;0.10;0.10;;;;;;;6.92;79.70;96460.31;7371706;19;20477;-64
2024/03/28 05:56:11;;;;;;;0.10;0.10;;;;;;;7.15;79.72;96488.88;7369217;19;20092;-63
2024/03/28 05:58:36;;;;;;;0.10;0.10;;;;;;;7.14;79.48;96490.63;7370934;19;20074;-63
2024/03/28 06:01:02;;;;;;;0.10;0.10;;;;;;;7.12;79.41;96474.38;7367436;19;20073;-63
2024/03/28 06:03:27;;;;;;;0.10;0.10;;;;;;;7.00;79.76;96450.19;7371991;19;19999;-63
2024/03/28 06:05:53;;;;;;;0.00;0.00;;;;;;;7.12;79.62;96473.53;7366689;19;20010;-63
2024/03/28 06:08:18;;;;;;;0.00;0.00;;;;;;;7.08;79.71;96467.75;7369539;19;20010;-63
2024/03/28 06:10:44;;;;;;;0.10;0.10;;;;;;;7.11;79.91;96477.09;7367845;19;20020;-63
2024/03/28 06:13:10;;;;;;;0.05;0.05;;;;;;;7.11;79.74;96482.28;7370409;19;19999;-63
2024/03/28 06:15:35;;;;;;;0.10;0.10;;;;;;;6.93;79.89;96449.00;7360616;19;20038;-63
2024/03/28 06:18:00;;;;;;;0.10;0.10;;;;;;;7.10;79.75;96480.63;7370293;19;19995;-63
2024/03/28 06:20:26;;;;;;;0.10;0.10;;;;;;;7.03;79.99;96475.88;7371285;19;20010;-64
2024/03/28 06:22:51;;;;;;;0.00;0.00;;;;;;;7.10;79.89;96483.22;7369413;19;20008;-63
2024/03/28 06:25:17;;;;;;;0.10;0.10;;;;;;;7.05;79.91;96477.56;7370994;19;20538;-64
2024/03/28 06:27:42;;;;;;;0.10;0.10;;;;;;;7.12;80.04;96494.28;7368587;19;20034;-63
2024/03/28 06:30:08;;;;;;;0.00;0.00;;;;;;;7.12;79.59;96481.31;7366326;19;20018;-64
2024/03/28 06:32:33;;;;;;;0.10;0.10;;;;;;;6.97;79.98;96465.97;7368645;19;20346;-63
2024/03/28 06:34:59;;;;;;;0.10;0.10;;;;;;;7.14;79.77;96476.84;7365974;19;20003;-64
2024/03/28 06:37:25;;;;;;;0.10;0.10;;;;;;;7.09;79.75;96474.59;7366687;19;19999;-64
2024/03/28 06:39:51;;;;;;;0.10;0.10;;;;;;;7.17;79.56;96487.00;7368031;19;19994;-64
2024/03/28 06:42:17;;;;;;;0.10;0.10;;;;;;;7.17;79.60;96497.38;7368594;19;20002;-64
2024/03/28 06:44:48;;;;;;;0.10;0.10;;;;;;;7.19;79.75;96485.09;7369586;19;20685;-64
2024/03/28 06:47:13;;;;;;;0.10;0.10;;;;;;;7.07;79.77;96470.47;7368651;19;20018;-64
2024/03/28 06:49:39;;;;;;;0.10;0.10;;;;;;;7.19;79.80;96482.50;7366585;19;20002;-63
2024/03/28 06:52:05;;;;;;;0.10;0.10;;;;;;;7.23;79.66;96486.50;7367092;19;20018;-63
2024/03/28 06:54:31;;;;;;;0.10;0.10;;;;;;;7.24;79.77;96477.78;7366635;19;20022;-64
2024/03/28 06:56:56;;;;;;;0.10;0.10;;;;;;;7.23;79.79;96478.72;7368865;19;20086;-64
2024/03/28 06:59:22;;;;;;;0.10;0.10;;;;;;;7.27;79.70;96467.19;7367756;19;20014;-64
2024/03/28 07:01:47;;;;;;;0.10;0.10;;;;;;;6.84;79.82;96400.44;7367089;19;20011;-64
2024/03/28 07:04:12;;;;;;;0.10;0.10;;;;;;;7.29;79.73;96465.28;7370349;19;20670;-64
2024/03/28 07:06:38;;;;;;;0.10;0.10;;;;;;;7.29;79.86;96465.28;7367470;19;20003;-64
2024/03/28 07:09:03;;;;;;;0.10;0.10;;;;;;;7.28;79.64;96458.44;7366187;19;20022;-63
2024/03/28 07:11:29;;;;;;;0.10;0.10;;;;;;;7.32;79.36;96457.28;7368720;19;19995;-64
2024/03/28 07:13:54;;;;;;;0.10;0.10;;;;;;;7.24;79.72;96442.28;7367696;19;20062;-64
2024/03/28 07:16:20;;;;;;;0.10;0.10;;;;;;;7.33;79.78;96450.31;7363648;19;20019;-64
2024/03/28 07:18:45;;;;;;;0.10;0.10;;;;;;;7.35;79.71;96456.19;7368282;19;20015;-63
2024/03/28 07:21:11;;;;;;;0.20;0.20;;;;;;;7.34;79.75;96449.34;7367465;19;20011;-62
2024/03/28 07:23:40;;;;;;;0.10;0.10;;;;;;;7.26;79.74;96434.41;7366981;19;20035;-64
2024/03/28 07:26:09;;;;;;;0.10;0.10;;;;;;;7.38;79.53;96449.00;7367135;19;20010;-64
2024/03/28 07:28:34;;;;;;;0.10;0.10;;;;;;;7.39;79.39;96442.03;7357624;19;20675;-64
2024/03/28 07:31:00;;;;;;;0.00;0.00;;;;;;;7.40;79.39;96448.88;7352288;19;20002;-62
2024/03/28 07:33:25;;;;;;;0.10;0.10;;;;;;;7.42;79.57;96445.22;7365415;19;20030;-62
2024/03/28 07:35:51;;;;;;;0.10;0.10;;;;;;;7.45;79.73;96442.41;7363096;19;20091;-63
2024/03/28 07:38:19;;;;;;;0.10;0.10;;;;;;;7.47;79.79;96440.50;7366157;19;20006;-64
2024/03/28 07:40:49;;;;;;;0.13;0.13;;;;;;;7.45;79.51;96439.81;7366314;19;19999;-63
2024/03/28 07:43:15;;;;;;;0.10;0.10;;;;;;;7.50;79.71;96436.81;7369007;19;20006;-63
2024/03/28 07:45:41;;;;;;;0.10;0.10;;;;;;;7.50;79.34;96427.31;7365197;19;20006;-63
2024/03/28 07:48:08;;;;;;;0.10;0.10;;;;;;;7.57;79.35;96432.00;7366905;19;20852;-64
2024/03/28 07:50:33;;;;;;;0.10;0.10;;;;;;;7.57;79.45;96432.00;7369714;19;20013;-64
2024/03/28 07:52:59;;;;;;;0.10;0.10;;;;;;;7.62;79.60;96441.06;7360897;19;19999;-64
2024/03/28 07:55:25;;;;;;;0.10;0.10;;;;;;;7.65;79.35;96442.59;7358481;19;20015;-64
2024/03/28 07:57:51;;;;;;;0.10;0.10;;;;;;;7.68;79.27;96444.94;7362708;19;20649;-64
2024/03/28 08:00:17;;;;;;;0.10;0.10;;;;;;;7.71;79.52;96436.94;7366017;19;20130;-64
2024/03/28 08:02:45;;;;;;;0.00;0.00;;;;;;;7.71;79.06;96436.94;7363367;19;20432;-64
2024/03/28 08:05:13;;;;;;;;;;;;;;;7.78;78.85;96438.09;7356310;19;19999;-63
2024/03/28 08:07:39;;;;;;;0.10;0.10;;;;;;;7.75;79.44;96436.53;7360688;19;19927;-64
2024/03/28 08:10:05;;;;;;;0.10;0.10;;;;;;;7.78;79.21;96440.69;7360707;19;20026;-64
2024/03/28 08:12:30;;;;;;;0.10;0.10;;;;;;;7.73;79.06;96432.44;7362246;19;20009;-64
2024/03/28 08:14:56;;;;;;;0.10;0.10;;;;;;;7.76;78.94;96437.41;7359184;19;20015;-63
2024/03/28 08:17:21;;;;;;;0.10;0.10;;;;;;;7.82;79.03;96436.91;7364335;19;20462;-63
2024/03/28 08:19:47;;;;;;;0.10;0.10;;;;;;;7.84;79.42;96435.00;7359054;19;20480;-63
2024/03/28 08:22:14;;;;;;;0.10;0.10;;;;;;;7.82;79.21;96425.69;7360055;19;20010;-61
2024/03/28 08:24:40;;;;;;;0.05;0.05;;;;;;;7.79;79.09;96413.75;7364102;19;20005;-63
2024/03/28 08:27:05;;;;;;;0.10;0.10;;;;;;;7.86;79.35;96422.72;7358628;19;20836;-63
2024/03/28 08:29:30;;;;;;;0.10;0.10;;;;;;;7.90;78.93;96418.91;7359603;19;20740;-63
2024/03/28 08:31:56;;;;;;;0.10;0.10;;;;;;;7.86;79.28;96390.75;7361829;19;20007;-61
2024/03/28 08:34:22;;;;;;;0.10;0.10;;;;;;;8.01;79.31;96405.91;7353584;19;20003;-63
2024/03/28 08:36:48;;;;;;;0.10;0.10;;;;;;;8.04;79.33;96410.84;7360036;19;20010;-63
2024/03/28 08:39:13;;;;;;;0.10;0.10;;;;;;;7.89;78.82;96372.28;7360889;19;20023;-63
2024/03/28 08:41:40;;;;;;;0.05;0.05;;;;;;;8.12;78.77;96410.22;7362350;19;20785;-63
2024/03/28 08:44:08;;;;;;;0.10;0.10;;;;;;;8.17;78.85;96409.84;7359667;19;20090;-63
2024/03/28 08:46:33;;;;;;;0.10;0.10;;;;;;;8.08;78.84;96398.44;7362249;19;20038;-62
2024/03/28 08:48:59;;;;;;;0.10;0.10;;;;;;;8.22;78.70;96418.09;7360978;19;20007;-63
2024/03/28 08:51:24;;;;;;;0.10;0.10;;;;;;;8.09;78.68;96392.28;7355629;19;20741;-63
2024/03/28 08:53:50;;;;;;;0.10;0.10;;;;;;;8.29;79.00;96416.63;7354494;19;20013;-63
2024/03/28 08:56:17;;;;;;;0.10;0.10;;;;;;;8.19;78.35;96394.94;7360962;19;20003;-63
2024/03/28 08:58:43;;;;;;;0.10;0.10;;;;;;;8.15;78.47;96380.56;7359250;19;19999;-63
2024/03/28 09:01:09;;;;;;;0.10;0.10;;;;;;;8.41;78.86;96418.25;7358487;19;20029;-63
2024/03/28 09:03:34;;;;;;;0.10;0.10;;;;;;;8.46;78.82;96421.28;7362231;19;20003;-63
2024/03/28 09:06:00;;;;;;;0.10;0.10;;;;;;;8.52;78.45;96420.00;7362047;19;20006;-63
2024/03/28 09:08:26;;;;;;;0.10;0.10;;;;;;;8.54;78.68;96424.09;7364194;19;20003;-63
2024/03/28 09:10:55;;;;;;;0.10;0.10;;;;;;;8.55;78.50;96420.53;7360994;19;20379;-63
2024/03/28 09:13:21;;;;;;;0.10;0.10;;;;;;;8.65;78.42;96430.19;7362608;19;20620;-63
2024/03/28 09:15:47;;;;;;;0.10;0.10;;;;;;;8.67;78.35;96434.31;7357824;19;19999;-63
2024/03/28 09:18:12;;;;;;;0.20;0.20;;;;;;;8.75;78.35;96438.88;7358041;19;19999;-63
2024/03/28 09:20:38;;;;;;;0.10;0.10;;;;;;;8.79;78.52;96441.09;7362808;19;20019;-63
2024/03/28 09:23:03;;;;;;;0.10;0.10;;;;;;;8.84;78.24;96440.69;7359980;19;19998;-64
2024/03/28 09:25:29;;;;;;;0.10;0.10;;;;;;;8.90;78.21;96429.78;7368807;19;20013;-63
2024/03/28 09:27:55;;;;;;;0.10;0.10;;;;;;;8.96;77.95;96433.63;7369595;19;20331;-63
2024/03/28 09:30:21;;;;;;;0.10;0.10;;;;;;;8.96;77.95;96421.44;7365438;19;20026;-63
2024/03/28 09:32:47;;;;;;;0.10;0.10;;;;;;;9.10;77.79;96436.72;7369304;19;19998;-63
2024/03/28 09:35:13;;;;;;;0.10;0.10;;;;;;;9.10;77.74;96426.31;7366517;19;19999;-63
2024/03/28 09:37:38;;;;;;;0.10;0.10;;;;;;;9.23;77.80;96435.69;7370594;19;20009;-63
2024/03/28 09:40:08;;;;;;;0.10;0.10;;;;;;;9.29;77.67;96429.97;7365269;19;20373;-61
2024/03/28 09:42:37;;;;;;;0.10;0.10;;;;;;;9.37;77.75;96432.72;7369657;19;20008;-63
2024/03/28 09:45:06;;;;;;;0.10;0.10;;;;;;;9.40;77.59;96424.66;7367733;19;20361;-63
2024/03/28 09:47:33;;;;;;;0.10;0.10;;;;;;;9.43;77.11;96424.41;7369757;19;20403;-63
2024/03/28 09:50:00;;;;;;;0.10;0.10;;;;;;;9.48;77.46;96423.97;7367126;19;20469;-62
2024/03/28 09:52:28;;;;;;;0.10;0.10;;;;;;;9.40;77.52;96401.22;7367949;19;20571;-63
2024/03/28 09:54:54;;;;;;;0.10;0.10;;;;;;;9.58;77.10;96425.66;7366051;19;20397;-62
2024/03/28 09:57:20;;;;;;;0.10;0.10;;;;;;;9.68;77.39;96424.84;7366320;19;19999;-63
2024/03/28 09:59:45;;;;;;;0.10;0.10;;;;;;;9.80;77.20;96422.00;7363540;19;20836;-63
2024/03/28 10:02:17;;;;;;;0.10;0.10;;;;;;;10.01;76.80;96421.88;7364885;19;19999;-62
2024/03/28 10:04:47;;;;;;;0.08;0.08;;;;;;;10.22;76.48;96424.34;7368112;19;20845;-63
2024/03/28 10:07:13;;;;;;;0.10;0.10;;;;;;;10.44;76.54;96423.31;7369288;19;20170;-63
2024/03/28 10:09:39;;;;;;;0.10;0.10;;;;;;;10.70;76.05;96417.50;7365541;19;20018;-63
2024/03/28 10:12:12;;;;;;;0.10;0.10;;;;;;;11.00;75.74;96416.44;7365247;19;20003;-63
2024/03/28 10:14:39;;;;;;;0.10;0.10;;;;;;;11.10;74.80;96415.44;7363402;19;20359;-63
2024/03/28 10:17:05;;;;;;;0.20;0.20;;;;;;;11.31;74.60;96424.84;7364686;19;20003;-62
2024/03/28 10:19:33;;;;;;;0.10;0.10;;;;;;;11.45;74.61;96424.34;7364531;19;20497;-63
2024/03/28 10:22:13;;;;;;;0.10;0.10;;;;;;;11.62;74.59;96410.53;7362863;19;20014;-63
2024/03/28 10:24:45;;;;;;;0.10;0.10;;;;;;;11.82;74.05;96426.13;7362879;19;20037;-63
2024/03/28 10:27:20;;;;;;;0.10;0.10;;;;;;;12.06;73.66;96422.91;7367566;19;20013;-63
2024/03/28 10:29:51;;;;;;;0.10;0.10;;;;;;;12.27;73.17;96431.31;7362363;19;21142;-63
2024/03/28 10:32:17;;;;;;;0.10;0.10;;;;;;;12.40;72.79;96436.16;7365921;19;20685;-63
2024/03/28 10:34:49;;;;;;;0.10;0.10;;;;;;;12.58;72.74;96444.00;7356798;19;20002;-63
2024/03/28 10:37:18;;;;;;;0.10;0.10;;;;;;;12.67;72.49;96443.91;7367375;19;19998;-63
2024/03/28 10:39:47;;;;;;;0.10;0.10;;;;;;;12.70;72.37;96453.25;7366139;19;20003;-62
2024/03/28 10:42:16;;;;;;;0.10;0.10;;;;;;;12.78;72.16;96458.56;7366643;19;20006;-63
2024/03/28 10:44:45;;;;;;;0.20;0.20;;;;;;;12.72;72.24;96452.13;7366191;19;19998;-63
2024/03/28 10:47:18;;;;;;;0.10;0.10;;;;;;;12.68;72.22;96448.16;7366303;19;20413;-63
2024/03/28 10:49:49;;;;;;;0.10;0.10;;;;;;;12.55;72.39;96442.50;7366790;19;20580;-63
2024/03/28 10:52:31;;;;;;;0.17;0.17;;;;;;;12.62;72.94;96461.00;7363864;19;20007;-63
2024/03/28 10:55:04;;;;;;;0.10;0.10;;;;;;;12.50;72.69;96462.22;7362351;19;20337;-63
2024/03/28 10:57:32;;;;;;;0.10;0.10;;;;;;;12.35;73.27;96459.31;7363451;19;20018;-63
2024/03/28 10:59:58;;;;;;;0.20;0.20;;;;;;;12.28;73.27;96463.53;7362930;19;20006;-63
2024/03/28 11:02:27;;;;;;;0.10;0.10;;;;;;;12.06;73.64;96449.06;7365746;19;20019;-63
2024/03/28 11:04:54;;;;;;;0.10;0.10;;;;;;;12.01;74.07;96446.06;7364393;19;20742;-63
2024/03/28 11:07:21;;;;;;;0.10;0.10;;;;;;;12.07;74.56;96467.25;7363172;19;20033;-63
2024/03/28 11:09:50;;;;;;;0.20;0.20;;;;;;;12.01;74.28;96470.41;7364821;19;20554;-62
2024/03/28 11:12:15;;;;;;;0.10;0.10;;;;;;;11.95;74.66;96463.16;7357451;19;20002;-63
2024/03/28 11:14:53;;;;;;;0.10;0.10;;;;;;;11.97;75.08;96466.47;7363815;19;20006;-63
2024/03/28 11:17:20;;;;;;;0.10;0.10;;;;;;;11.89;74.88;96461.97;7361275;19;19998;-63
2024/03/28 11:19:45;;;;;;;0.10;0.10;;;;;;;11.87;75.32;96461.31;7363276;19;20503;-63
2024/03/28 11:22:11;;;;;;;0.10;0.10;;;;;;;11.85;75.33;96462.41;7364697;19;20015;-63
2024/03/28 11:24:37;;;;;;;0.10;0.10;;;;;;;11.84;75.32;96466.81;7364186;19;20007;-63
2024/03/28 11:27:03;;;;;;;0.10;0.10;;;;;;;11.65;75.47;96425.91;7367470;19;20468;-64
2024/03/28 11:29:30;;;;;;;0.10;0.10;;;;;;;11.77;75.54;96451.84;7366022;19;20003;-63
2024/03/28 11:31:59;;;;;;;0.10;0.10;;;;;;;11.79;75.66;96453.34;7362689;19;20987;-63
2024/03/28 11:34:28;;;;;;;0.17;0.17;;;;;;;11.75;75.47;96457.19;7363520;19;20025;-63
2024/03/28 11:36:55;;;;;;;0.10;0.10;;;;;;;11.76;75.81;96468.47;7361918;19;20113;-63
2024/03/28 11:39:21;;;;;;;0.10;0.10;;;;;;;11.75;76.03;96457.19;7364730;19;20029;-63
2024/03/28 11:41:47;;;;;;;0.10;0.10;;;;;;;11.54;75.79;96439.16;7363148;19;21102;-63
2024/03/28 11:44:20;;;;;;;0.10;0.10;;;;;;;11.76;76.11;96468.47;7365438;19;20014;-63